Portada
METAR-TAF:

METAR-TAF

Aeropuertos :

Vitória, Espírito Santo, Brasil

Aeropuerto de Eurico de Aguiar Salles

latitud: 20-16S, longitud: 040-17W, altitud: 4 m

Observación

El informe se hizo hace 52 minutos, a las 12:00 UTC
Viento 3 kt del oeste
Temperatura 26°C
Humedad 79%
Presión 1021 hPa
Visibilidad 10 km o más
Escasas nubes a una altura de 2500 ft

METAR: SBVT 251200Z 27003KT 9999 FEW025 26/22 Q1021

Hora: 09:52 (12:52 UTC)

Pronóstico

El informe se hizo hace 2 horas y 52 minutos, a las 10:00 UTC
Pronóstico válido del 25 a las 12 UTC al 26 a las 12 UTC
Viento 8 kt del sureste
Visibilidad: 8000 m
Nubes dispersas a una altura de 2000 ft
Evolucionando progresivamente
del 26 a las 00 UTC al 26 a las 02 UTC
Viento 5 kt del norte-noroeste

TAF: SBVT 251000Z 2512/2612 14008KT 8000 SCT020 TX27/2515Z TN22/2605Z BECMG 2600/2602 33005KT RMK PCH

Observaciones y pronósticos meteorológicos de más de 4000 aeropuertos (mensajes METAR y TAF).

Los puntos amarillos y rojos representan las estaciones disponibles.

Ponga el ratón en el punto deseado para ver el nombre de la estación.

Haga clic para ver las observaciones y los pronósticos meteorológicos.

Para cambiar el mapa : haga clic en los botones verdes con una cruz de color negro para hacer un zoom, en el botón verde con un guión para alejar o en las flechas verdes para mapas adyacentes.


METAR-TAF: